createdAt,value
2019-02-18T09:37:41.648Z,13.20
2019-02-18T09:38:41.621Z,13.90
2019-02-18T09:39:41.567Z,11.00
2019-02-18T09:40:44.668Z,12.20
2019-02-18T09:41:42.666Z,14.60
2019-02-18T09:42:41.575Z,11.90
2019-02-18T09:43:41.521Z,10.50
2019-02-18T09:44:41.512Z,13.70
2019-02-18T09:45:41.554Z,10.90
2019-02-18T09:46:41.513Z,10.00
2019-02-18T09:47:41.481Z,12.80
2019-02-18T09:48:41.473Z,11.80
2019-02-18T09:49:41.591Z,12.10
2019-02-18T09:50:41.452Z,12.50
2019-02-18T09:51:41.466Z,12.00
2019-02-18T09:52:41.444Z,11.30
2019-02-18T09:53:41.424Z,12.40
2019-02-18T09:54:41.420Z,14.30
2019-02-18T09:55:41.434Z,13.00
2019-02-18T09:56:41.390Z,13.00
2019-02-18T09:57:41.410Z,13.30
2019-02-18T09:58:41.665Z,9.40
2019-02-18T09:59:41.809Z,11.50
2019-02-18T10:00:41.587Z,12.40
2019-02-18T10:01:43.227Z,12.90
2019-02-18T10:02:41.340Z,13.50
2019-02-18T10:03:41.373Z,11.90
2019-02-18T10:04:41.347Z,13.10
2019-02-18T10:05:41.322Z,10.60
2019-02-18T10:06:41.266Z,14.50
2019-02-18T10:07:41.363Z,9.90
2019-02-18T10:08:41.378Z,12.00
2019-02-18T10:09:41.265Z,10.80
2019-02-18T10:10:42.184Z,12.70
2019-02-18T10:11:41.308Z,10.20
2019-02-18T10:12:41.266Z,11.10
2019-02-18T10:13:41.195Z,11.90
2019-02-18T10:14:41.263Z,14.30
2019-02-18T10:15:42.317Z,12.10
2019-02-18T10:16:41.395Z,11.30
2019-02-18T10:17:41.309Z,12.90
2019-02-18T10:18:41.158Z,13.10
2019-02-18T10:19:42.978Z,12.20
2019-02-18T10:20:41.470Z,9.30
2019-02-18T10:21:41.311Z,14.50
2019-02-18T10:22:41.101Z,10.00
2019-02-18T10:23:41.101Z,12.80
2019-02-18T10:24:50.455Z,12.10
2019-02-18T10:25:42.083Z,14.00
2019-02-18T10:26:41.047Z,14.70
2019-02-18T10:27:41.287Z,14.40
2019-02-18T10:28:41.286Z,11.50
2019-02-18T10:29:41.413Z,11.90
2019-02-18T10:30:41.350Z,16.50
2019-02-18T10:31:41.842Z,15.80
2019-02-18T10:32:41.424Z,14.20
2019-02-18T10:33:40.958Z,13.60
2019-02-18T10:34:41.028Z,13.00
2019-02-18T10:35:41.316Z,13.60
2019-02-18T10:36:40.931Z,11.10
2019-02-18T10:37:40.967Z,13.40
2019-02-18T10:38:40.967Z,11.50
2019-02-18T10:39:40.899Z,14.50
2019-02-18T10:40:40.881Z,14.00
2019-02-18T10:41:40.901Z,8.80
2019-02-18T10:42:40.860Z,9.10
2019-02-18T10:43:40.864Z,11.80
2019-02-18T10:44:40.939Z,12.30
2019-02-18T10:45:40.827Z,11.70
2019-02-18T10:46:40.890Z,11.80
2019-02-18T10:47:40.851Z,13.60
2019-02-18T10:48:40.905Z,10.70
2019-02-18T10:49:40.782Z,12.00
2019-02-18T10:50:40.908Z,11.80
2019-02-18T10:51:40.772Z,10.00
2019-02-18T10:52:40.812Z,10.80
2019-02-18T10:53:40.748Z,10.10
2019-02-18T10:54:40.717Z,12.40
2019-02-18T10:55:40.771Z,12.80
2019-02-18T10:56:40.722Z,13.00
2019-02-18T10:57:40.680Z,16.00
2019-02-18T10:58:40.720Z,13.00
2019-02-18T10:59:40.664Z,13.50
2019-02-18T11:00:40.679Z,11.60
2019-02-18T11:01:40.684Z,12.40
2019-02-18T11:02:40.669Z,12.10
2019-02-18T11:03:40.615Z,12.40
2019-02-18T11:04:40.623Z,10.00
2019-02-18T11:05:40.766Z,9.40
2019-02-18T11:06:40.657Z,11.10
2019-02-18T11:07:41.738Z,11.40
2019-02-18T11:08:40.569Z,10.80
2019-02-18T11:09:40.586Z,11.10
2019-02-18T11:10:40.771Z,13.90
2019-02-18T11:11:40.768Z,11.40
2019-02-18T11:12:40.653Z,10.50
2019-02-18T11:13:40.565Z,9.90
2019-02-18T11:14:40.609Z,12.80
2019-02-18T11:15:40.592Z,12.20
2019-02-18T11:16:41.097Z,10.70
2019-02-18T11:17:40.537Z,12.70
2019-02-18T11:18:41.898Z,12.60
2019-02-18T11:19:41.948Z,13.60
2019-02-18T11:20:41.277Z,10.40
2019-02-18T11:21:40.559Z,10.50
2019-02-18T11:22:41.333Z,11.90
2019-02-18T11:23:41.216Z,18.80
2019-02-18T11:24:41.783Z,10.00
2019-02-18T11:25:41.773Z,12.00
2019-02-18T11:26:41.447Z,12.80
2019-02-18T11:27:40.599Z,13.20
2019-02-18T11:28:40.438Z,10.40
2019-02-18T11:29:40.451Z,14.10
2019-02-18T11:30:41.677Z,12.70
2019-02-18T11:31:40.758Z,12.00
2019-02-18T11:32:41.099Z,13.10
2019-02-18T11:33:40.322Z,13.40
2019-02-18T11:34:40.374Z,11.60
2019-02-18T11:35:40.311Z,14.00
2019-02-18T11:36:40.281Z,12.00
2019-02-18T11:37:40.506Z,13.50
2019-02-18T11:38:40.290Z,17.10
2019-02-18T11:39:41.826Z,10.30
2019-02-18T11:40:40.309Z,12.10
2019-02-18T11:41:40.201Z,12.50
2019-02-18T11:42:40.314Z,13.80
2019-02-18T11:43:40.197Z,11.80
2019-02-18T11:44:40.167Z,12.00
2019-02-18T11:45:40.144Z,10.70
2019-02-18T11:46:40.150Z,12.20
2019-02-18T11:47:40.119Z,10.80
2019-02-18T11:48:40.211Z,11.30
2019-02-18T11:49:40.196Z,10.80
2019-02-18T11:50:40.809Z,12.90
2019-02-18T11:51:40.144Z,12.20
2019-02-18T11:52:40.191Z,12.30
2019-02-18T11:53:40.117Z,13.70
2019-02-18T11:54:40.072Z,12.80
2019-02-18T11:55:40.476Z,12.00
2019-02-18T11:56:40.046Z,12.30
2019-02-18T11:57:40.018Z,11.20
2019-02-18T11:58:40.488Z,12.70
2019-02-18T11:59:41.028Z,11.30
2019-02-18T12:00:40.151Z,13.00
2019-02-18T12:01:39.965Z,12.10
2019-02-18T12:02:40.003Z,13.70
2019-02-18T12:03:39.951Z,11.30
2019-02-18T12:04:40.003Z,12.10
2019-02-18T12:05:39.938Z,11.20
2019-02-18T12:06:44.472Z,13.50
2019-02-18T12:07:40.043Z,15.50
2019-02-18T12:08:48.238Z,13.60
2019-02-18T12:09:40.171Z,11.80
2019-02-18T12:10:40.059Z,14.10
2019-02-18T12:11:39.897Z,13.50
2019-02-18T12:12:39.837Z,12.30
2019-02-18T12:13:39.830Z,12.50
2019-02-18T12:14:39.879Z,11.00
2019-02-18T12:15:39.799Z,11.80
2019-02-18T12:16:39.965Z,15.20
2019-02-18T12:17:39.775Z,11.80
2019-02-18T12:18:39.825Z,13.90
2019-02-18T12:19:39.773Z,11.80
2019-02-18T12:20:39.747Z,13.30
2019-02-18T12:21:39.834Z,13.50
2019-02-18T12:22:39.772Z,11.30
2019-02-18T12:23:39.768Z,14.00
2019-02-18T12:24:39.991Z,16.10
2019-02-18T12:25:40.310Z,15.00
2019-02-18T12:26:41.343Z,12.40
2019-02-18T12:27:39.699Z,11.10
2019-02-18T12:28:39.655Z,10.60
2019-02-18T12:29:41.377Z,14.20
2019-02-18T12:30:40.355Z,13.90
2019-02-18T12:31:39.656Z,11.40
2019-02-18T12:32:39.622Z,12.50
2019-02-18T12:33:39.601Z,16.90
2019-02-18T12:34:40.644Z,10.10
2019-02-18T12:35:39.903Z,12.40
2019-02-18T12:36:42.484Z,12.80
2019-02-18T12:37:39.556Z,10.90
2019-02-18T12:38:41.060Z,10.80
2019-02-18T12:39:39.554Z,11.50
2019-02-18T12:40:39.610Z,11.00
2019-02-18T12:41:48.358Z,19.70
2019-02-18T12:42:42.761Z,16.90
2019-02-18T12:43:39.719Z,13.70
2019-02-18T12:44:39.617Z,19.30
2019-02-18T12:45:40.363Z,21.10
2019-02-18T12:46:40.819Z,12.10
2019-02-18T12:47:39.467Z,13.50
2019-02-18T12:48:39.454Z,12.10
2019-02-18T12:49:39.419Z,15.10
2019-02-18T12:50:39.428Z,17.20
2019-02-18T12:51:39.408Z,9.90
2019-02-18T12:52:39.838Z,12.30
2019-02-18T12:53:39.401Z,13.80
2019-02-18T12:54:39.533Z,9.60
2019-02-18T12:55:39.383Z,13.90
2019-02-18T12:56:39.347Z,13.40
2019-02-18T12:57:39.337Z,12.60
2019-02-18T12:58:39.831Z,11.60
2019-02-18T12:59:39.397Z,13.10
2019-02-18T13:00:39.305Z,12.90
2019-02-18T13:01:39.319Z,11.30
2019-02-18T13:02:44.259Z,9.30
2019-02-18T13:03:41.335Z,13.70
2019-02-18T13:04:39.306Z,9.10
2019-02-18T13:05:39.255Z,12.30
2019-02-18T13:06:39.815Z,10.40
2019-02-18T13:07:40.860Z,13.10
2019-02-18T13:08:40.835Z,10.80
2019-02-18T13:09:39.245Z,11.30
2019-02-18T13:10:39.279Z,10.10
2019-02-18T13:11:39.180Z,11.20
2019-02-18T13:12:39.219Z,9.70
2019-02-18T13:13:39.222Z,8.80
2019-02-18T13:14:39.232Z,9.60
2019-02-18T13:15:39.129Z,9.30
2019-02-18T13:16:39.175Z,15.20
2019-02-18T13:17:39.110Z,8.70
2019-02-18T13:18:44.967Z,10.00
2019-02-18T13:19:39.182Z,11.20
2019-02-18T13:20:39.196Z,15.20
2019-02-18T13:21:39.101Z,14.00
2019-02-18T13:22:39.160Z,10.70
2019-02-18T13:23:39.069Z,10.70
2019-02-18T13:24:39.118Z,10.60
2019-02-18T13:25:41.933Z,7.60
2019-02-18T13:26:40.329Z,10.60
2019-02-18T13:27:39.002Z,8.80
2019-02-18T13:28:38.996Z,8.50
2019-02-18T13:29:38.974Z,8.80
2019-02-18T13:30:38.963Z,8.70
2019-02-18T13:31:38.950Z,9.40
2019-02-18T13:32:38.989Z,13.30
2019-02-18T13:33:38.935Z,8.60
2019-02-18T13:34:39.059Z,8.10
2019-02-18T13:35:38.921Z,11.10
2019-02-18T13:36:38.892Z,9.90
2019-02-18T13:37:38.892Z,8.80
2019-02-18T13:38:38.876Z,11.50
2019-02-18T13:39:38.858Z,10.80
2019-02-18T13:40:38.896Z,10.60
2019-02-18T13:41:38.850Z,10.50
2019-02-18T13:42:38.831Z,10.30
2019-02-18T13:43:38.814Z,10.50
2019-02-18T13:44:38.804Z,11.30
2019-02-18T13:45:38.842Z,11.30
2019-02-18T13:46:38.777Z,10.30
2019-02-18T13:47:38.769Z,13.10
2019-02-18T13:48:38.768Z,11.80
2019-02-18T13:49:38.753Z,8.70
2019-02-18T13:50:38.777Z,11.90
2019-02-18T13:51:38.733Z,12.10
2019-02-18T13:52:38.801Z,6.50
2019-02-18T13:53:38.733Z,10.60
2019-02-18T13:54:38.723Z,8.60
2019-02-18T13:55:38.682Z,8.50
2019-02-18T13:56:38.677Z,8.20
2019-02-18T13:57:38.662Z,12.00
2019-02-18T13:58:38.704Z,8.80
2019-02-18T13:59:38.635Z,8.10
2019-02-18T14:00:38.916Z,8.60
2019-02-18T14:01:38.638Z,10.90
2019-02-18T14:02:38.713Z,7.10
2019-02-18T14:03:38.602Z,7.20
2019-02-18T14:04:38.585Z,9.50
2019-02-18T14:05:38.586Z,9.80
2019-02-18T14:06:38.581Z,7.30
2019-02-18T14:07:38.553Z,9.70
2019-02-18T14:08:38.582Z,6.50
2019-02-18T14:09:38.526Z,9.60
2019-02-18T14:10:38.517Z,10.30
2019-02-18T14:11:38.518Z,9.00
2019-02-18T14:12:38.490Z,9.70
2019-02-18T14:13:38.504Z,10.00
2019-02-18T14:14:38.533Z,6.70
2019-02-18T14:15:38.489Z,11.00
2019-02-18T14:16:38.480Z,9.40
2019-02-18T14:17:38.468Z,7.70
2019-02-18T14:18:38.423Z,11.20
2019-02-18T14:19:38.421Z,9.70
2019-02-18T14:20:38.459Z,7.10
2019-02-18T14:21:38.401Z,8.20
2019-02-18T14:22:38.387Z,7.50
2019-02-18T14:23:38.392Z,9.20
2019-02-18T14:24:38.416Z,10.70
2019-02-18T14:25:38.350Z,10.70
2019-02-18T14:26:38.379Z,6.90
2019-02-18T14:27:38.333Z,8.50
2019-02-18T14:28:38.360Z,7.70
2019-02-18T14:29:38.308Z,10.40
2019-02-18T14:30:38.311Z,9.70
2019-02-18T14:31:38.333Z,10.10
2019-02-18T14:32:38.320Z,12.30
2019-02-18T14:33:38.284Z,9.10
2019-02-18T14:34:38.250Z,10.50
2019-02-18T14:35:38.237Z,10.50
2019-02-18T14:36:38.247Z,9.30
2019-02-18T14:37:38.339Z,8.70
2019-02-18T14:38:38.201Z,9.90
2019-02-18T14:39:38.193Z,6.90
2019-02-18T14:40:38.182Z,9.20
2019-02-18T14:41:38.203Z,5.80
2019-02-18T14:42:38.213Z,8.70
2019-02-18T14:43:38.164Z,12.00
2019-02-18T14:44:38.148Z,8.10
2019-02-18T14:45:38.125Z,6.60
2019-02-18T14:46:38.120Z,11.20
2019-02-18T14:47:38.172Z,13.40
2019-02-18T14:48:38.240Z,9.40
2019-02-18T14:49:38.122Z,11.60
2019-02-18T14:50:38.075Z,9.80
2019-02-18T14:51:38.057Z,7.90
2019-02-18T14:52:38.097Z,8.60
2019-02-18T14:53:38.060Z,8.30
2019-02-18T14:54:38.063Z,7.70
2019-02-18T14:55:38.030Z,7.40
2019-02-18T14:56:38.007Z,6.20
2019-02-18T14:57:38.063Z,8.10
2019-02-18T14:58:38.041Z,5.60
2019-02-18T14:59:37.986Z,6.80
2019-02-18T15:00:37.966Z,6.80
2019-02-18T15:01:37.953Z,6.80
2019-02-18T15:02:37.940Z,5.60
2019-02-18T15:03:37.944Z,6.10
2019-02-18T15:04:37.965Z,5.50
2019-02-18T15:05:37.908Z,5.00
2019-02-18T15:06:37.905Z,5.30
2019-02-18T15:07:37.936Z,6.50
2019-02-18T15:08:37.885Z,5.50
2019-02-18T15:09:37.868Z,6.20
2019-02-18T15:10:37.862Z,6.50
2019-02-18T15:11:37.892Z,3.90
2019-02-18T15:12:37.839Z,6.90
2019-02-18T15:13:37.824Z,7.50
2019-02-18T15:14:37.816Z,6.40
2019-02-18T15:15:37.795Z,5.30
2019-02-18T15:16:37.789Z,8.30
2019-02-18T15:17:37.828Z,8.40
2019-02-18T15:18:37.763Z,5.60
2019-02-18T15:19:37.811Z,4.30
2019-02-18T15:20:37.755Z,8.40
2019-02-18T15:21:37.743Z,8.40
2019-02-18T15:22:37.760Z,8.70
2019-02-18T15:23:37.715Z,5.40
2019-02-18T15:24:37.702Z,5.10
2019-02-18T15:25:37.695Z,6.00
2019-02-18T15:26:37.688Z,6.00
2019-02-18T15:27:37.720Z,8.00
2019-02-18T15:28:37.697Z,8.00
2019-02-18T15:29:37.641Z,6.00
2019-02-18T15:30:37.636Z,5.50
2019-02-18T15:31:37.624Z,7.50
2019-02-18T15:32:37.617Z,8.70
2019-02-18T15:33:37.641Z,7.10
2019-02-18T15:34:37.613Z,5.30
2019-02-18T15:35:38.177Z,4.50
2019-02-18T15:36:37.571Z,4.20
2019-02-18T15:37:37.887Z,8.10
2019-02-18T15:38:37.543Z,5.80
2019-02-18T15:39:37.537Z,8.00
2019-02-18T15:40:37.533Z,7.10
2019-02-18T15:41:37.514Z,6.20
2019-02-18T15:42:42.343Z,5.60
2019-02-18T15:43:38.545Z,4.90
2019-02-18T15:44:37.494Z,5.70
2019-02-18T15:45:37.510Z,4.40
2019-02-18T15:46:37.466Z,5.80
2019-02-18T15:47:37.490Z,4.60
2019-02-18T15:48:37.439Z,4.40
2019-02-18T15:49:37.428Z,4.40
2019-02-18T15:50:37.422Z,9.30
2019-02-18T15:51:37.413Z,5.80
2019-02-18T15:52:37.470Z,5.70
2019-02-18T15:53:37.725Z,8.50
2019-02-18T15:54:37.368Z,4.70
2019-02-18T15:55:37.375Z,6.60
2019-02-18T15:56:37.347Z,4.40
2019-02-18T15:57:37.342Z,5.00
2019-02-18T15:58:37.384Z,5.10
2019-02-18T15:59:37.317Z,6.40
2019-02-18T16:00:37.310Z,6.10
2019-02-18T16:01:37.293Z,6.20
2019-02-18T16:02:37.286Z,5.70
2019-02-18T16:03:37.464Z,6.70
2019-02-18T16:04:37.265Z,6.20
2019-02-18T16:05:37.253Z,6.00
2019-02-18T16:06:37.246Z,8.10
2019-02-18T16:07:37.255Z,4.50
2019-02-18T16:08:37.216Z,5.90
2019-02-18T16:09:37.253Z,5.80
2019-02-18T16:10:37.241Z,7.40
2019-02-18T16:11:38.853Z,7.50
2019-02-18T16:12:37.182Z,6.80
2019-02-18T16:13:37.164Z,5.50
2019-02-18T16:14:37.172Z,6.60
2019-02-18T16:15:37.148Z,5.90
2019-02-18T16:16:37.199Z,5.50
2019-02-18T16:17:37.118Z,7.30
2019-02-18T16:18:37.158Z,7.10
2019-02-18T16:19:37.098Z,8.50
2019-02-18T16:20:37.081Z,8.70
2019-02-18T16:21:37.077Z,6.20
2019-02-18T16:22:37.065Z,6.70
2019-02-18T16:23:37.050Z,9.10
2019-02-18T16:24:37.093Z,7.60
2019-02-18T16:25:37.026Z,6.80
2019-02-18T16:26:37.038Z,8.00
2019-02-18T16:27:37.004Z,6.30
2019-02-18T16:28:37.042Z,5.40
2019-02-18T16:29:37.084Z,6.30
2019-02-18T16:30:36.975Z,5.20
2019-02-18T16:31:36.965Z,4.40
2019-02-18T16:32:36.986Z,6.90
2019-02-18T16:33:36.957Z,7.70
2019-02-18T16:34:36.930Z,7.30
2019-02-18T16:35:37.368Z,5.80
2019-02-18T16:36:37.260Z,6.90
2019-02-18T16:37:36.891Z,10.80
2019-02-18T16:38:36.884Z,5.50
2019-02-18T16:39:36.882Z,7.80
2019-02-18T16:40:36.864Z,8.70
2019-02-18T16:41:36.895Z,6.60
2019-02-18T16:42:36.846Z,7.00
2019-02-18T16:43:36.835Z,7.30
2019-02-18T16:44:36.820Z,8.70
2019-02-18T16:45:36.822Z,5.90
2019-02-18T16:46:36.796Z,7.00
2019-02-18T16:47:36.830Z,6.80
2019-02-18T16:48:36.821Z,4.80
2019-02-18T16:49:36.760Z,7.10
2019-02-18T16:50:36.759Z,6.80
2019-02-18T16:51:36.739Z,4.40
2019-02-18T16:52:36.766Z,5.20
2019-02-18T16:53:36.711Z,6.80
2019-02-18T16:54:36.698Z,7.50
2019-02-18T16:55:36.701Z,8.40
2019-02-18T16:56:36.684Z,4.90
2019-02-18T16:57:38.177Z,6.80
2019-02-18T16:58:36.717Z,5.20
2019-02-18T16:59:36.655Z,4.60
2019-02-18T17:00:36.641Z,6.50
2019-02-18T17:01:36.621Z,5.80
2019-02-18T17:02:36.628Z,5.90
2019-02-18T17:03:36.605Z,6.60
2019-02-18T17:04:36.627Z,5.50
2019-02-18T17:05:36.576Z,5.00
2019-02-18T17:06:36.565Z,5.40
2019-02-18T17:07:36.569Z,6.20
2019-02-18T17:08:36.595Z,4.30
2019-02-18T17:09:36.543Z,10.60
2019-02-18T17:10:36.526Z,6.60
2019-02-18T17:11:36.510Z,5.00
2019-02-18T17:12:36.498Z,6.80
2019-02-18T17:13:36.486Z,6.30
2019-02-18T17:14:36.524Z,6.20
2019-02-18T17:15:36.463Z,6.90
2019-02-18T17:16:36.462Z,8.70
2019-02-18T17:17:36.439Z,8.00
2019-02-18T17:18:36.477Z,9.20
2019-02-18T17:19:36.427Z,6.80
2019-02-18T17:20:36.471Z,8.70
2019-02-18T17:21:36.403Z,5.80
2019-02-18T17:22:36.385Z,6.70
2019-02-18T17:23:36.379Z,7.50
2019-02-18T17:24:36.408Z,6.20
2019-02-18T17:25:36.351Z,5.80
2019-02-18T17:26:36.352Z,6.70
2019-02-18T17:27:36.332Z,9.20
2019-02-18T17:28:36.321Z,8.40
2019-02-18T17:29:36.309Z,5.70
2019-02-18T17:30:36.340Z,8.30
2019-02-18T17:31:36.290Z,5.90
2019-02-18T17:32:36.275Z,6.90
2019-02-18T17:33:36.269Z,6.00
2019-02-18T17:34:36.250Z,6.10
2019-02-18T17:35:36.240Z,8.60
2019-02-18T17:36:36.294Z,5.90
2019-02-18T17:37:36.246Z,5.90
2019-02-18T17:38:36.207Z,6.30
2019-02-18T17:39:36.195Z,8.20
2019-02-18T17:40:36.194Z,5.90
2019-02-18T17:41:36.210Z,9.10
2019-02-18T17:42:36.359Z,5.90
2019-02-18T17:43:36.160Z,6.00
2019-02-18T17:44:36.142Z,8.90
2019-02-18T17:45:36.138Z,5.80
2019-02-18T17:46:36.124Z,8.60
2019-02-18T17:47:36.138Z,5.60
2019-02-18T17:48:36.150Z,6.50
2019-02-18T17:49:36.083Z,6.90
2019-02-18T17:50:36.120Z,6.90
2019-02-18T17:51:36.064Z,6.40
2019-02-18T17:52:36.114Z,8.90
2019-02-18T17:53:36.044Z,8.90
2019-02-18T17:54:36.028Z,6.40
2019-02-18T17:55:36.020Z,7.30
2019-02-18T17:56:36.004Z,7.80
2019-02-18T17:57:35.995Z,12.50
2019-02-18T17:58:36.023Z,11.20
2019-02-18T17:59:35.977Z,7.20
2019-02-18T18:00:36.004Z,8.00
2019-02-18T18:01:35.956Z,9.90
2019-02-18T18:02:35.943Z,8.50
2019-02-18T18:03:35.975Z,8.20
2019-02-18T18:04:35.920Z,7.30
2019-02-18T18:05:35.915Z,5.50
2019-02-18T18:06:35.894Z,6.40
2019-02-18T18:07:35.894Z,8.00
2019-02-18T18:08:35.920Z,7.00
2019-02-18T18:09:35.860Z,8.70
2019-02-18T18:10:35.847Z,8.80
2019-02-18T18:11:35.882Z,6.20
2019-02-18T18:12:35.831Z,8.70
2019-02-18T18:13:35.819Z,11.00
2019-02-18T18:14:35.853Z,11.30
2019-02-18T18:15:35.789Z,7.90
2019-02-18T18:16:35.785Z,10.70
2019-02-18T18:17:35.765Z,7.30
2019-02-18T18:18:35.818Z,9.60
2019-02-18T18:19:35.741Z,6.60
2019-02-18T18:20:35.731Z,6.70
2019-02-18T18:21:35.720Z,8.20
2019-02-18T18:22:35.709Z,7.10
2019-02-18T18:23:35.700Z,6.50
2019-02-18T18:24:35.730Z,5.50
2019-02-18T18:25:35.677Z,7.00
2019-02-18T18:26:35.665Z,9.70
2019-02-18T18:27:35.658Z,8.20
2019-02-18T18:28:35.701Z,7.70
2019-02-18T18:29:35.631Z,8.40
2019-02-18T18:30:35.621Z,9.70
2019-02-18T18:31:35.660Z,9.10
2019-02-18T18:32:35.595Z,9.40
2019-02-18T18:33:35.584Z,8.20
2019-02-18T18:34:35.571Z,6.00
2019-02-18T18:35:35.751Z,7.40
2019-02-18T18:36:35.552Z,7.50
2019-02-18T18:37:35.547Z,9.00
2019-02-18T18:38:35.534Z,14.80
2019-02-18T18:39:35.517Z,7.30
2019-02-18T18:40:35.509Z,9.50
2019-02-18T18:41:35.537Z,8.40
2019-02-18T18:42:35.482Z,6.70
2019-02-18T18:43:35.471Z,7.30
2019-02-18T18:44:35.504Z,7.00
2019-02-18T18:45:35.446Z,10.10
2019-02-18T18:46:35.442Z,13.00
2019-02-18T18:47:35.427Z,11.40
2019-02-18T18:48:35.603Z,10.90
2019-02-18T18:49:35.405Z,10.40
2019-02-18T18:50:35.394Z,14.40
2019-02-18T18:51:35.382Z,9.60
2019-02-18T18:52:35.393Z,12.20
2019-02-18T18:53:35.356Z,11.50
2019-02-18T18:54:35.405Z,14.30
2019-02-18T18:55:35.335Z,15.70
2019-02-18T18:56:35.341Z,17.10
2019-02-18T18:57:35.309Z,15.40
2019-02-18T18:58:35.303Z,13.80
2019-02-18T18:59:35.295Z,11.00
2019-02-18T19:00:35.329Z,8.80
2019-02-18T19:01:35.267Z,13.60
2019-02-18T19:02:35.257Z,8.70
2019-02-18T19:03:35.445Z,8.60
2019-02-18T19:04:35.234Z,10.50
2019-02-18T19:05:35.229Z,8.70
2019-02-18T19:06:35.214Z,10.40
2019-02-18T19:07:35.199Z,9.60
2019-02-18T19:08:35.196Z,8.70
2019-02-18T19:09:35.381Z,9.40
2019-02-18T19:10:35.161Z,9.10
2019-02-18T19:11:35.158Z,11.90
2019-02-18T19:12:35.139Z,11.80
2019-02-18T19:13:41.958Z,7.30
2019-02-18T19:14:36.176Z,7.90
2019-02-18T19:15:35.174Z,9.10
2019-02-18T19:16:35.094Z,10.90
2019-02-18T19:17:35.089Z,9.10
2019-02-18T19:18:35.138Z,11.10
2019-02-18T19:19:35.061Z,9.90
2019-02-18T19:20:35.054Z,8.10
2019-02-18T19:21:35.037Z,8.80
2019-02-18T19:22:35.032Z,8.90
2019-02-18T19:23:35.149Z,7.10
2019-02-18T19:24:35.057Z,7.70
2019-02-18T19:25:35.000Z,7.00
2019-02-18T19:26:35.005Z,8.00
2019-02-18T19:27:35.122Z,8.40
2019-02-18T19:28:34.968Z,7.60
2019-02-18T19:29:34.993Z,9.80
2019-02-18T19:30:34.940Z,8.60
2019-02-18T19:31:34.930Z,12.20
2019-02-18T19:32:34.919Z,9.70
2019-02-18T19:33:34.952Z,10.60
2019-02-18T19:34:34.896Z,9.00
2019-02-18T19:35:34.920Z,8.20
2019-02-18T19:36:34.874Z,10.70
2019-02-18T19:37:34.856Z,9.50
2019-02-18T19:38:34.847Z,9.40
2019-02-18T19:39:34.883Z,9.10
2019-02-18T19:40:34.821Z,10.20
2019-02-18T19:41:34.810Z,9.80
2019-02-18T19:42:34.804Z,9.50
2019-02-18T19:43:34.784Z,10.70
2019-02-18T19:44:34.790Z,14.40
2019-02-18T19:45:34.815Z,10.40
2019-02-18T19:46:34.800Z,10.10
2019-02-18T19:47:34.745Z,11.70
2019-02-18T19:48:34.756Z,9.40
2019-02-18T19:49:34.731Z,7.30
2019-02-18T19:50:34.748Z,15.30
2019-02-18T19:51:34.696Z,11.70
2019-02-18T19:52:34.734Z,10.40
2019-02-18T19:53:34.675Z,9.30
2019-02-18T19:54:34.675Z,10.60
2019-02-18T19:55:34.659Z,10.30
2019-02-18T19:56:34.639Z,10.30
2019-02-18T19:57:34.626Z,10.40
2019-02-18T19:58:34.656Z,8.60
2019-02-18T19:59:34.804Z,9.40
2019-02-18T20:00:34.596Z,9.30
2019-02-18T20:01:34.586Z,8.80
2019-02-18T20:02:34.569Z,6.70
2019-02-18T20:03:34.558Z,11.10
2019-02-18T20:04:34.546Z,10.80
2019-02-18T20:05:34.576Z,9.90
2019-02-18T20:06:34.527Z,11.70
2019-02-18T20:07:34.548Z,9.40
2019-02-18T20:08:34.502Z,12.40
2019-02-18T20:09:34.492Z,13.80
2019-02-18T20:10:34.526Z,9.40
2019-02-18T20:11:34.509Z,14.40
2019-02-18T20:12:34.458Z,10.70
2019-02-18T20:13:34.444Z,10.60
2019-02-18T20:14:34.503Z,9.90
2019-02-18T20:15:34.424Z,11.30
2019-02-18T20:16:34.418Z,9.30
2019-02-18T20:17:34.399Z,10.30
2019-02-18T20:18:34.387Z,12.00
2019-02-18T20:19:34.379Z,12.10
2019-02-18T20:20:34.411Z,11.00
2019-02-18T20:21:34.368Z,13.90
2019-02-18T20:22:34.358Z,9.40
2019-02-18T20:23:34.329Z,10.40
2019-02-18T20:24:34.319Z,11.50
2019-02-18T20:25:34.306Z,11.90
2019-02-18T20:26:34.336Z,11.30
2019-02-18T20:27:34.284Z,13.90
2019-02-18T20:28:34.276Z,11.50
2019-02-18T20:29:34.262Z,7.60
2019-02-18T20:30:34.293Z,9.50
2019-02-18T20:31:34.238Z,8.20
2019-02-18T20:32:34.273Z,8.10
2019-02-18T20:33:34.221Z,8.90
2019-02-18T20:34:34.214Z,10.50
2019-02-18T20:35:34.194Z,12.40
2019-02-18T20:36:34.183Z,10.80
2019-02-18T20:37:34.177Z,10.10
2019-02-18T20:38:34.230Z,7.80
2019-02-18T20:39:34.149Z,10.80
2019-02-18T20:40:34.142Z,8.80
2019-02-18T20:41:34.184Z,9.20
2019-02-18T20:42:34.113Z,9.90
2019-02-18T20:43:34.103Z,9.40
2019-02-18T20:44:34.120Z,11.20
2019-02-18T20:45:34.080Z,9.00
2019-02-18T20:46:34.070Z,9.10
2019-02-18T20:47:34.117Z,7.70
2019-02-18T20:48:34.047Z,11.60
2019-02-18T20:49:34.116Z,7.00
2019-02-18T20:50:34.026Z,8.10
2019-02-18T20:51:34.013Z,9.40
2019-02-18T20:52:34.004Z,10.00
2019-02-18T20:53:34.034Z,12.40
2019-02-18T20:54:33.977Z,10.10
2019-02-18T20:55:33.969Z,8.00
2019-02-18T20:56:33.955Z,10.30
2019-02-18T20:57:33.943Z,6.30
2019-02-18T20:58:33.936Z,9.30
2019-02-18T20:59:33.963Z,9.20
2019-02-18T21:00:33.909Z,10.50
2019-02-18T21:01:33.942Z,10.10
2019-02-18T21:02:33.888Z,7.80
2019-02-18T21:03:33.882Z,9.10
2019-02-18T21:04:33.869Z,10.70
2019-02-18T21:05:33.856Z,8.60
2019-02-18T21:06:34.048Z,9.50
2019-02-18T21:07:33.831Z,10.00
2019-02-18T21:08:33.818Z,9.40
2019-02-18T21:09:33.808Z,10.50
2019-02-18T21:10:33.798Z,9.10
2019-02-18T21:11:33.785Z,7.80
2019-02-18T21:12:33.843Z,8.60
2019-02-18T21:13:33.764Z,8.10
2019-02-18T21:14:33.873Z,9.10
2019-02-18T21:15:33.800Z,8.50
2019-02-18T21:16:33.753Z,10.70
2019-02-18T21:17:33.731Z,10.90
2019-02-18T21:18:33.709Z,9.70
2019-02-18T21:19:33.721Z,9.80
2019-02-18T21:20:33.739Z,10.40
2019-02-18T21:21:33.671Z,13.70
2019-02-18T21:22:33.660Z,10.10
2019-02-18T21:23:33.656Z,10.50
2019-02-18T21:24:33.658Z,10.90
2019-02-18T21:25:33.629Z,12.70
2019-02-18T21:26:33.657Z,11.90
2019-02-18T21:27:33.602Z,8.90
2019-02-18T21:28:33.594Z,10.00
2019-02-18T21:29:33.580Z,10.50
2019-02-18T21:30:33.872Z,9.80
2019-02-18T21:31:33.561Z,10.60
2019-02-18T21:32:33.546Z,9.70
2019-02-18T21:33:33.535Z,10.90
2019-02-18T21:34:33.525Z,10.30
2019-02-18T21:35:33.517Z,8.80
2019-02-18T21:36:33.545Z,9.90
2019-02-18T21:37:33.493Z,8.50
2019-02-18T21:38:33.478Z,13.40
2019-02-18T21:39:33.468Z,10.20
2019-02-18T21:40:33.456Z,10.40
2019-02-18T21:41:33.444Z,10.80
2019-02-18T21:42:33.481Z,9.00
2019-02-18T21:43:33.421Z,8.70
2019-02-18T21:44:33.414Z,19.80
2019-02-18T21:45:33.399Z,11.00
2019-02-18T21:46:33.409Z,9.40
2019-02-18T21:47:33.376Z,10.90
2019-02-18T21:48:33.415Z,10.50
2019-02-18T21:49:33.354Z,9.00
2019-02-18T21:50:33.344Z,12.30
2019-02-18T21:51:33.332Z,12.40
2019-02-18T21:52:33.319Z,11.40
2019-02-18T21:53:33.319Z,9.90
2019-02-18T21:54:33.343Z,10.80
2019-02-18T21:55:33.287Z,10.30
2019-02-18T21:56:33.278Z,9.80
2019-02-18T21:57:33.280Z,10.40
2019-02-18T21:58:33.253Z,10.00
2019-02-18T21:59:33.245Z,14.40
2019-02-18T22:00:33.372Z,9.90
2019-02-18T22:01:33.220Z,11.20
2019-02-18T22:02:33.211Z,8.00
2019-02-18T22:03:33.202Z,10.80
2019-02-18T22:04:33.192Z,8.60
2019-02-18T22:05:33.185Z,9.20
2019-02-18T22:06:33.238Z,10.10
2019-02-18T22:07:33.156Z,10.00
2019-02-18T22:08:33.141Z,8.70
2019-02-18T22:09:33.129Z,10.30
2019-02-18T22:10:33.119Z,11.70
2019-02-18T22:11:33.107Z,11.00
2019-02-18T22:12:33.172Z,8.70
2019-02-18T22:13:33.083Z,9.20
2019-02-18T22:14:35.259Z,11.40
2019-02-18T22:15:33.079Z,9.80
2019-02-18T22:16:33.148Z,10.40
2019-02-18T22:17:33.041Z,9.90
2019-02-18T22:18:33.072Z,8.50
2019-02-18T22:19:33.020Z,8.60
2019-02-18T22:20:33.006Z,8.70
2019-02-18T22:21:32.997Z,8.40
2019-02-18T22:22:32.985Z,9.00
2019-02-18T22:23:33.018Z,9.30
2019-02-18T22:24:32.962Z,10.00
2019-02-18T22:25:32.992Z,8.30
2019-02-18T22:26:32.941Z,10.50
2019-02-18T22:27:32.972Z,9.70
2019-02-18T22:28:32.975Z,10.80
2019-02-18T22:29:32.905Z,8.50
2019-02-18T22:30:32.893Z,10.80
2019-02-18T22:31:32.887Z,9.80
2019-02-18T22:32:32.870Z,9.50
2019-02-18T22:33:32.866Z,10.50
2019-02-18T22:34:32.894Z,8.70
2019-02-18T22:35:32.838Z,11.50
2019-02-18T22:36:32.836Z,8.70
2019-02-18T22:37:32.822Z,11.30
2019-02-18T22:38:32.805Z,11.60
2019-02-18T22:39:32.793Z,11.20
2019-02-18T22:40:32.827Z,9.50
2019-02-18T22:41:32.772Z,12.30
2019-02-18T22:42:32.874Z,9.90